Terminal Aerodrome Forecast
Issued by NWS

Home | Current Version | Previous Version | Text Only | Print | Product List | Glossary On
Versions: 1 2 3 4 5 6 7 8 9 10 11 12 13 14 15 16 17 18 19 20 21 22 23 24 25 26 27 28 29 30 31 32 33 34 35 36
000
FTUS43 KLOT 220700 AAA
TAFDPA
TAF AMD
KDPA 220738Z 2208/2306 VRB05KT 2SM TSRA BR SCT020 BKN040CB OVC090
     FM220830 VRB04KT 3SM BR VCSH BKN035 BKN060 OVC100
      TEMPO 2209/2212 1SM BR MIFG
     FM221300 22004KT 4SM BR BKN040
     FM221500 25006KT P6SM SCT040 BKN100 PROB30 2220/2223 4SM TSRA
      OVC040CB
     FM222300 06006KT P6SM SCT050 BKN100=

USA.gov is the U.S. government's official web portal to all federal, state and local government web resources and services.